Aérodrome :
LOGIN :

S'inscrire | Disclaimer

   EN    FR    IT 

 










Légende :    VFR   VFR Marginal   IFR   IFR Intensif   IFR Très Intensif
Visi : 
Plafond : 
>= 8 km
>= 3000ft
5 à 8 km
1000 à 3000 ft
1500m à 5 km
500 à 1000 ft
800 à 1500m
200 à 500 ft
< 800m
< 200 ft
Symboles :   Orages  Brouillard  Fortes neiges  Fortes précipitations  Vent > 20 kt
SIGMETs :   Divers  Orages  Givrage  Turbulence  Onde Orograph.  Cendres Volcan.






- Altitude de l'aérodrome : 645 ft
- Code IATA : DLE


LFGJ - Dole Tavaux

DERNIER METAR :
  • 071400Z AUTO 19008KT 9999 BKN012 OVC052 10/08 Q1020 NOSIG

METARs EXPIRÉS :
  • 071330Z AUTO 20010KT 9999 BKN011 OVC054 10/08 Q1020 NOSIG
  • 071300Z AUTO 22008KT 9999 BKN012 OVC054 10/08 Q1021 NOSIG
  • 071230Z AUTO 22010KT 9999 BKN012 OVC046 10/09 Q1021 NOSIG
  • 071200Z AUTO 22010KT 9999 OVC011 09/08 Q1021 NOSIG
  • 071130Z AUTO 20011KT 9999 OVC010 09/08 Q1021 BECMG BKN015 BKN030

TAF TAF LFGJ
Valide du 07 à 12h jusqu'au 07 à 21h UTC


071100Z 0712/0721 20010KT 9999 BKN020 BKN035
PROB40
TEMPO 0712/0718 -RA BKN010



MET'MAP, la Météo Aéronautique d'un coup d'oeil ! - Copyright ORBIFLY Décembre 2007 - Disclaimer

ORBIFLY MET'MAP TEAM :

Programmation & Développement : Alexandra Zaïnal
Sur une idée originale de : Baudouin d'Aumeries
Assistance à la programmation : Marc-Olivier Méhu
Soutien technique & logistique : Manuel Goepfert

Contact : metmap@orbifly.com




SOURCES & CREDITS :

   NOAA